Time;durP1;ratioP1;P1;durP2;ratioP2;P2;SDS_P1;SDS_P2;PMS_P1;PMS_P2;Temp;Humidity;BMP_temperature;BMP_pressure;BME280_temperature;BME280_humidity;BME280_pressure;Samples;Min_cycle;Max_cycle;Signal;HPM_P1;HPM_P2
2023/01/29 00:00:48;;;;;;;;;;;;;;;;;;5079748;28;20294;-79
2023/01/29 00:03:14;;;;;;;;;;;;;;;;;;5079579;28;19926;-79
2023/01/29 00:05:39;;;;;;;;;;;;;;;;;;5079980;28;19906;-79
2023/01/29 00:08:05;;;;;;;;;;;;;;;;;;5079788;28;19904;-79
2023/01/29 00:10:31;;;;;;;;;;;;;;;;;;5063913;28;19958;-79
2023/01/29 00:12:57;;;;;;;;;;;;;;;;;;5059406;28;20646;-79
2023/01/29 00:15:23;;;;;;;;;;;;;;;;;;5059403;28;19905;-79
2023/01/29 00:17:49;;;;;;;;;;;;;;;;;;5059603;28;19916;-79
2023/01/29 00:20:15;;;;;;;;;;;;;;;;;;5075801;28;20412;-79
2023/01/29 00:22:41;;;;;;;;;;;;;;;;;;5079603;28;19930;-79
2023/01/29 00:25:07;;;;;;;;;;;;;;;;;;5079354;28;19904;-79
2023/01/29 00:27:33;;;;;;;;;;;;;;;;;;5079431;28;19904;-79
2023/01/29 00:30:09;;;;;;;;;;;;;;;;;;5063968;28;19905;-79
2023/01/29 00:32:35;;;;;;;;;;;;;;;;;;5070212;28;20304;-79
2023/01/29 00:35:01;;;;;;;;;;;;;;;;;;5078249;28;19912;-79
2023/01/29 00:37:26;;;;;;;;;;;;;;;;;;5078564;28;19916;-79
2023/01/29 00:40:02;;;;;;;;;;;;;;;;;;5064978;28;19904;-79
2023/01/29 00:45:12;;;;;;;;;;;;;;;;;;5059329;28;19912;-79
2023/01/29 00:47:38;;;;;;;;;;;;;;;;;;5072862;28;19905;-79
2023/01/29 00:50:04;;;;;;;;;;;;;;;;;;5078216;28;19904;-79
2023/01/29 00:52:30;;;;;;;;;;;;;;;;;;5065951;28;20317;-79
2023/01/29 00:54:56;;;;;;;;;;;;;;;;;;5073890;28;19913;-79
2023/01/29 00:57:22;;;;;;;;;;;;;;;;;;5075688;28;19912;-79
2023/01/29 00:59:47;;;;;;;;;;;;;;;;;;5081321;28;20278;-79
2023/01/29 01:04:58;;;;;;;;;;;;;;;;;;5071669;28;19911;-79
2023/01/29 01:07:24;;;;;;;;;;;;;;;;;;5061145;28;19904;-79
2023/01/29 01:12:39;;;;;;;;;;;;;;;;;;5080725;28;19954;-79
2023/01/29 01:15:04;;;;;;;;;;;;;;;;;;5075383;28;19913;-79
2023/01/29 01:17:30;;;;;;;;;;;;;;;;;;5077278;28;19910;-79
2023/01/29 01:22:28;;;;;;;;;;;;;;;;;;5068627;28;19931;-79
2023/01/29 01:24:54;;;;;;;;;;;;;;;;;;5081777;28;19915;-79
2023/01/29 01:27:20;;;;;;;;;;;;;;;;;;5081646;28;19908;-79
2023/01/29 01:29:45;;;;;;;;;;;;;;;;;;5078055;28;19912;-79
2023/01/29 01:32:11;;;;;;;;;;;;;;;;;;5071799;28;19930;-79
2023/01/29 01:34:37;;;;;;;;;;;;;;;;;;5080667;28;19919;-79
2023/01/29 01:37:03;;;;;;;;;;;;;;;;;;5080218;28;19986;-80
2023/01/29 01:39:29;;;;;;;;;;;;;;;;;;5076487;28;19916;-79
2023/01/29 01:41:55;;;;;;;;;;;;;;;;;;5060347;28;19905;-79
2023/01/29 01:44:21;;;;;;;;;;;;;;;;;;5058407;28;19908;-79
2023/01/29 01:46:47;;;;;;;;;;;;;;;;;;5058207;28;19911;-79
2023/01/29 01:49:14;;;;;;;;;;;;;;;;;;5068329;28;19912;-79
2023/01/29 01:51:40;;;;;;;;;;;;;;;;;;5078260;28;20010;-79
2023/01/29 01:54:06;;;;;;;;;;;;;;;;;;5078090;28;20369;-79
2023/01/29 01:56:37;;;;;;;;;;;;;;;;;;5064832;28;19936;-79
2023/01/29 01:59:03;;;;;;;;;;;;;;;;;;5078327;28;19911;-79
2023/01/29 02:01:29;;;;;;;;;;;;;;;;;;5074337;28;19927;-79
2023/01/29 02:09:38;;;;;;;;;;;;;;;;;;5074239;28;20425;-79
2023/01/29 02:12:04;;;;;;;;;;;;;;;;;;5078453;28;20407;-79
2023/01/29 02:14:30;;;;;;;;;;;;;;;;;;5077584;28;20003;-79
2023/01/29 02:16:56;;;;;;;;;;;;;;;;;;5078121;28;20357;-79
2023/01/29 02:19:22;;;;;;;;;;;;;;;;;;5078435;28;19912;-79
2023/01/29 02:21:48;;;;;;;;;;;;;;;;;;5077733;28;19958;-79
2023/01/29 02:24:14;;;;;;;;;;;;;;;;;;5077966;28;19939;-79
2023/01/29 02:26:40;;;;;;;;;;;;;;;;;;5078069;28;19908;-79
2023/01/29 02:29:21;;;;;;;;;;;;;;;;;;5060699;28;19916;-79
2023/01/29 02:31:47;;;;;;;;;;;;;;;;;;5070572;28;19911;-79
2023/01/29 02:34:13;;;;;;;;;;;;;;;;;;5064790;28;19913;-79
2023/01/29 02:36:39;;;;;;;;;;;;;;;;;;5077253;28;20269;-79
2023/01/29 02:39:04;;;;;;;;;;;;;;;;;;5070307;28;19944;-79
2023/01/29 02:41:30;;;;;;;;;;;;;;;;;;5057914;28;20561;-79
2023/01/29 02:43:56;;;;;;;;;;;;;;;;;;5064579;28;19904;-79
2023/01/29 02:46:22;;;;;;;;;;;;;;;;;;5077524;28;20007;-79
2023/01/29 02:48:48;;;;;;;;;;;;;;;;;;5070920;28;19908;-79
2023/01/29 02:51:15;;;;;;;;;;;;;;;;;;5058390;28;19959;-79
2023/01/29 02:53:41;;;;;;;;;;;;;;;;;;5058121;28;19959;-79
2023/01/29 02:56:07;;;;;;;;;;;;;;;;;;5058352;28;19904;-79
2023/01/29 02:58:33;;;;;;;;;;;;;;;;;;5077514;28;19904;-79
2023/01/29 03:00:58;;;;;;;;;;;;;;;;;;5065500;28;20010;-79
2023/01/29 03:03:24;;;;;;;;;;;;;;;;;;5063348;28;19987;-79
2023/01/29 03:05:53;;;;;;;;;;;;;;;;;;5076639;28;19904;-79
2023/01/29 03:08:19;;;;;;;;;;;;;;;;;;5056600;28;19992;-79
2023/01/29 03:10:45;;;;;;;;;;;;;;;;;;5070485;28;19955;-79
2023/01/29 03:13:11;;;;;;;;;;;;;;;;;;5076697;28;20334;-79
2023/01/29 03:15:38;;;;;;;;;;;;;;;;;;5076349;28;19905;-79
2023/01/29 03:18:03;;;;;;;;;;;;;;;;;;5076711;28;20361;-79
2023/01/29 03:20:31;;;;;;;;;;;;;;;;;;5077026;28;19908;-79
2023/01/29 03:22:57;;;;;;;;;;;;;;;;;;5064115;28;19998;-79
2023/01/29 03:33:45;;;;;;;;;;;;;;;;;;5071785;28;19974;-79
2023/01/29 03:36:11;;;;;;;;;;;;;;;;;;5076661;28;20340;-79
2023/01/29 03:38:38;;;;;;;;;;;;;;;;;;5063450;28;20413;-79
2023/01/29 03:41:04;;;;;;;;;;;;;;;;;;5077383;28;19951;-79
2023/01/29 03:43:31;;;;;;;;;;;;;;;;;;5076790;28;19904;-79
2023/01/29 03:45:57;;;;;;;;;;;;;;;;;;5077455;28;20353;-79
2023/01/29 03:48:23;;;;;;;;;;;;;;;;;;5076357;28;19905;-79
2023/01/29 03:50:49;;;;;;;;;;;;;;;;;;5075958;28;19915;-79
2023/01/29 03:53:15;;;;;;;;;;;;;;;;;;5075015;28;19991;-79
2023/01/29 03:55:41;;;;;;;;;;;;;;;;;;5075812;28;19904;-79
2023/01/29 03:58:07;;;;;;;;;;;;;;;;;;5073032;28;19927;-79
2023/01/29 04:00:33;;;;;;;;;;;;;;;;;;5065295;28;19904;-79
2023/01/29 04:02:59;;;;;;;;;;;;;;;;;;5076021;28;20536;-79
2023/01/29 04:05:25;;;;;;;;;;;;;;;;;;5076022;28;19905;-79
2023/01/29 04:07:50;;;;;;;;;;;;;;;;;;5075261;28;20672;-79
2023/01/29 04:10:16;;;;;;;;;;;;;;;;;;5077122;28;19904;-79
2023/01/29 04:12:42;;;;;;;;;;;;;;;;;;5063989;28;19938;-79
2023/01/29 04:15:23;;;;;;;;;;;;;;;;;;5059455;28;20010;-79
2023/01/29 04:18:00;;;;;;;;;;;;;;;;;;5073464;28;19912;-79
2023/01/29 04:20:26;;;;;;;;;;;;;;;;;;5059836;28;19905;-79
2023/01/29 04:22:52;;;;;;;;;;;;;;;;;;5065289;28;19905;-79
2023/01/29 04:25:18;;;;;;;;;;;;;;;;;;5081514;28;19905;-79
2023/01/29 04:27:44;;;;;;;;;;;;;;;;;;5083456;28;20313;-79
2023/01/29 04:30:09;;;;;;;;;;;;;;;;;;5083661;28;19909;-79
2023/01/29 04:32:37;;;;;;;;;;;;;;;;;;5082655;28;20376;-79
2023/01/29 04:35:03;;;;;;;;;;;;;;;;;;5079843;28;20024;-79
2023/01/29 04:37:29;;;;;;;;;;;;;;;;;;5073127;28;20358;-79
2023/01/29 04:39:55;;;;;;;;;;;;;;;;;;5071965;28;19995;-79
2023/01/29 04:42:21;;;;;;;;;;;;;;;;;;5079537;28;20034;-79
2023/01/29 04:44:48;;;;;;;;;;;;;;;;;;5079621;28;19904;-79
2023/01/29 04:47:14;;;;;;;;;;;;;;;;;;5079587;28;19904;-79
2023/01/29 04:49:40;;;;;;;;;;;;;;;;;;5066372;28;19991;-79
2023/01/29 04:52:06;;;;;;;;;;;;;;;;;;5059486;28;19905;-79
2023/01/29 04:54:32;;;;;;;;;;;;;;;;;;5059308;28;19913;-79
2023/01/29 04:56:58;;;;;;;;;;;;;;;;;;5078800;28;19946;-79
2023/01/29 05:02:08;;;;;;;;;;;;;;;;;;5079349;28;19911;-79
2023/01/29 05:04:34;;;;;;;;;;;;;;;;;;5079535;28;20273;-79
2023/01/29 05:07:00;;;;;;;;;;;;;;;;;;5070208;28;19962;-79
2023/01/29 05:09:26;;;;;;;;;;;;;;;;;;5058938;28;20381;-79
2023/01/29 05:11:52;;;;;;;;;;;;;;;;;;5058280;28;19904;-79
2023/01/29 05:14:18;;;;;;;;;;;;;;;;;;5060004;28;19913;-78
2023/01/29 05:16:43;;;;;;;;;;;;;;;;;;5078620;28;19940;-79
2023/01/29 05:19:09;;;;;;;;;;;;;;;;;;5078770;28;20353;-79
2023/01/29 05:21:35;;;;;;;;;;;;;;;;;;5068964;28;19905;-79
2023/01/29 05:24:01;;;;;;;;;;;;;;;;;;5060033;28;19904;-79
2023/01/29 05:29:12;;;;;;;;;;;;;;;;;;5059484;28;19958;-79
2023/01/29 05:31:38;;;;;;;;;;;;;;;;;;5057478;28;20007;-79
2023/01/29 05:34:03;;;;;;;;;;;;;;;;;;5075004;28;20472;-79
2023/01/29 05:36:29;;;;;;;;;;;;;;;;;;5077911;28;19911;-79
2023/01/29 05:38:55;;;;;;;;;;;;;;;;;;5058338;28;20373;-79
2023/01/29 05:41:21;;;;;;;;;;;;;;;;;;5075110;28;19905;-79
2023/01/29 05:46:16;;;;;;;;;;;;;;;;;;5081533;28;19971;-79
2023/01/29 05:48:42;;;;;;;;;;;;;;;;;;5080809;28;19948;-79
2023/01/29 05:51:08;;;;;;;;;;;;;;;;;;5061991;28;19905;-79
2023/01/29 05:53:34;;;;;;;;;;;;;;;;;;5069003;28;19936;-79
2023/01/29 05:56:00;;;;;;;;;;;;;;;;;;5078122;28;19915;-79
2023/01/29 05:58:26;;;;;;;;;;;;;;;;;;5078491;28;19904;-79
2023/01/29 06:00:51;;;;;;;;;;;;;;;;;;5077647;28;20330;-79
2023/01/29 06:03:17;;;;;;;;;;;;;;;;;;5067316;28;19905;-79
2023/01/29 06:05:43;;;;;;;;;;;;;;;;;;5058003;28;20416;-79
2023/01/29 06:08:09;;;;;;;;;;;;;;;;;;5067970;28;19904;-79
2023/01/29 06:10:35;;;;;;;;;;;;;;;;;;5059943;28;19931;-79
2023/01/29 06:13:01;;;;;;;;;;;;;;;;;;5067549;28;19995;-79
2023/01/29 06:15:27;;;;;;;;;;;;;;;;;;5076934;28;20281;-79
2023/01/29 06:17:53;;;;;;;;;;;;;;;;;;5076726;28;20411;-79
2023/01/29 06:20:19;;;;;;;;;;;;;;;;;;5063033;28;19911;-79
2023/01/29 06:22:44;;;;;;;;;;;;;;;;;;5076899;28;19940;-79
2023/01/29 06:25:23;;;;;;;;;;;;;;;;;;5076396;28;19912;-79
2023/01/29 06:27:55;;;;;;;;;;;;;;;;;;5076580;28;19911;-79
2023/01/29 06:30:20;;;;;;;;;;;;;;;;;;5076709;28;19908;-79
2023/01/29 06:32:46;;;;;;;;;;;;;;;;;;5071187;28;19916;-79
2023/01/29 06:35:12;;;;;;;;;;;;;;;;;;5071892;28;19958;-79
2023/01/29 06:37:38;;;;;;;;;;;;;;;;;;5076130;28;20003;-79
2023/01/29 06:40:04;;;;;;;;;;;;;;;;;;5070778;28;19904;-79
2023/01/29 06:42:31;;;;;;;;;;;;;;;;;;5070907;28;19935;-79
2023/01/29 06:44:57;;;;;;;;;;;;;;;;;;5072711;28;19995;-79
2023/01/29 06:47:23;;;;;;;;;;;;;;;;;;5075414;28;19912;-79
2023/01/29 06:49:49;;;;;;;;;;;;;;;;;;5065851;28;19909;-79
2023/01/29 06:52:15;;;;;;;;;;;;;;;;;;5078680;28;19950;-79
2023/01/29 06:54:41;;;;;;;;;;;;;;;;;;5067425;28;20003;-79
2023/01/29 06:57:07;;;;;;;;;;;;;;;;;;5079831;28;19955;-79
2023/01/29 06:59:33;;;;;;;;;;;;;;;;;;5081464;28;19904;-79
2023/01/29 07:01:59;;;;;;;;;;;;;;;;;;5080982;28;19910;-79
2023/01/29 07:04:25;;;;;;;;;;;;;;;;;;5080462;28;20003;-79
2023/01/29 07:09:38;;;;;;;;;;;;;;;;;;5060438;28;19904;-79
2023/01/29 07:12:04;;;;;;;;;;;;;;;;;;5061030;28;19904;-79
2023/01/29 07:14:29;;;;;;;;;;;;;;;;;;5060810;28;19941;-79
2023/01/29 07:16:55;;;;;;;;;;;;;;;;;;5071242;28;19904;-79
2023/01/29 07:19:22;;;;;;;;;;;;;;;;;;5083228;28;19908;-79
2023/01/29 07:21:48;;;;;;;;;;;;;;;;;;5087054;28;19908;-79
2023/01/29 07:24:15;;;;;;;;;;;;;;;;;;5074942;28;19905;-79
2023/01/29 07:26:41;;;;;;;;;;;;;;;;;;5088449;28;19979;-79
2023/01/29 07:29:06;;;;;;;;;;;;;;;;;;5085105;28;19905;-79
2023/01/29 07:31:32;;;;;;;;;;;;;;;;;;5080560;28;19978;-79
2023/01/29 07:33:58;;;;;;;;;;;;;;;;;;5086590;28;19912;-79
2023/01/29 07:36:24;;;;;;;;;;;;;;;;;;5086799;28;19939;-79
2023/01/29 07:38:50;;;;;;;;;;;;;;;;;;5085888;28;19921;-79
2023/01/29 07:41:16;;;;;;;;;;;;;;;;;;5079416;28;19905;-80
2023/01/29 07:43:42;;;;;;;;;;;;;;;;;;5080925;28;19934;-79
2023/01/29 07:46:08;;;;;;;;;;;;;;;;;;5071271;28;19943;-79
2023/01/29 07:48:34;;;;;;;;;;;;;;;;;;5071709;28;19926;-79
2023/01/29 07:51:01;;;;;;;;;;;;;;;;;;5083095;28;19908;-79
2023/01/29 07:53:33;;;;;;;;;;;;;;;;;;5077273;28;19905;-80
2023/01/29 07:55:58;;;;;;;;;;;;;;;;;;5074925;28;19912;-80
2023/01/29 07:58:24;;;;;;;;;;;;;;;;;;5081312;28;20003;-80
2023/01/29 08:00:50;;;;;;;;;;;;;;;;;;5087808;28;19975;-80
2023/01/29 08:03:16;;;;;;;;;;;;;;;;;;5076917;28;19911;-80
2023/01/29 08:05:42;;;;;;;;;;;;;;;;;;5062189;28;19905;-79
2023/01/29 08:08:08;;;;;;;;;;;;;;;;;;5076239;28;20331;-78
2023/01/29 08:10:34;;;;;;;;;;;;;;;;;;5076413;28;19987;-79
2023/01/29 08:13:00;;;;;;;;;;;;;;;;;;5076333;28;20536;-79
2023/01/29 08:15:25;;;;;;;;;;;;;;;;;;5071150;28;19947;-78
2023/01/29 08:17:51;;;;;;;;;;;;;;;;;;5081256;28;19908;-79
2023/01/29 08:20:17;;;;;;;;;;;;;;;;;;5072718;28;19905;-79
2023/01/29 08:22:43;;;;;;;;;;;;;;;;;;5058016;28;19992;-79
2023/01/29 08:25:09;;;;;;;;;;;;;;;;;;5061412;28;19904;-79
2023/01/29 08:27:35;;;;;;;;;;;;;;;;;;5066430;28;19911;-79
2023/01/29 08:30:01;;;;;;;;;;;;;;;;;;5082481;28;20365;-79
2023/01/29 08:32:27;;;;;;;;;;;;;;;;;;5082132;28;19904;-79
2023/01/29 08:34:53;;;;;;;;;;;;;;;;;;5080487;28;20021;-79
2023/01/29 08:37:18;;;;;;;;;;;;;;;;;;5078086;28;19905;-79
2023/01/29 08:39:44;;;;;;;;;;;;;;;;;;5082071;28;19997;-79
2023/01/29 08:42:10;;;;;;;;;;;;;;;;;;5082359;28;19908;-79
2023/01/29 08:44:36;;;;;;;;;;;;;;;;;;5081830;28;19995;-78
2023/01/29 08:47:02;;;;;;;;;;;;;;;;;;5066856;28;19919;-79
2023/01/29 08:49:28;;;;;;;;;;;;;;;;;;5081701;28;20306;-79
2023/01/29 08:51:55;;;;;;;;;;;;;;;;;;5080618;28;19904;-79
2023/01/29 08:54:21;;;;;;;;;;;;;;;;;;5078693;28;20315;-79
2023/01/29 08:56:47;;;;;;;;;;;;;;;;;;5075086;28;19904;-79
2023/01/29 08:59:13;;;;;;;;;;;;;;;;;;5076538;28;19911;-78
2023/01/29 09:01:39;;;;;;;;;;;;;;;;;;5076100;28;19904;-78
2023/01/29 09:04:05;;;;;;;;;;;;;;;;;;5076579;28;20272;-78
2023/01/29 09:06:31;;;;;;;;;;;;;;;;;;5075806;28;19908;-78
2023/01/29 09:08:56;;;;;;;;;;;;;;;;;;5064016;28;19974;-79
2023/01/29 09:11:22;;;;;;;;;;;;;;;;;;5076452;28;19995;-78
2023/01/29 09:13:48;;;;;;;;;;;;;;;;;;5056644;28;20271;-78
2023/01/29 09:16:14;;;;;;;;;;;;;;;;;;5056127;28;19905;-78
2023/01/29 09:18:41;;;;;;;;;;;;;;;;;;5056990;28;20417;-78
2023/01/29 09:21:07;;;;;;;;;;;;;;;;;;5061822;28;19944;-79
2023/01/29 09:23:33;;;;;;;;;;;;;;;;;;5076676;28;19912;-79
2023/01/29 09:25:59;;;;;;;;;;;;;;;;;;5072936;28;20616;-79
2023/01/29 09:28:25;;;;;;;;;;;;;;;;;;5075746;28;20384;-79
2023/01/29 09:30:50;;;;;;;;;;;;;;;;;;5075676;28;19912;-79
2023/01/29 09:33:17;;;;;;;;;;;;;;;;;;5075631;28;19904;-79
2023/01/29 09:35:44;;;;;;;;;;;;;;;;;;5075745;28;19905;-79
2023/01/29 09:38:10;;;;;;;;;;;;;;;;;;5075013;28;19939;-78
2023/01/29 09:40:36;;;;;;;;;;;;;;;;;;5074946;28;20312;-78
2023/01/29 09:43:02;;;;;;;;;;;;;;;;;;5074992;28;19908;-77
2023/01/29 09:45:28;;;;;;;;;;;;;;;;;;5075000;28;20362;-78
2023/01/29 09:47:54;;;;;;;;;;;;;;;;;;5074702;28;20257;-78
2023/01/29 09:50:20;;;;;;;;;;;;;;;;;;5074800;28;19908;-78
2023/01/29 09:52:46;;;;;;;;;;;;;;;;;;5057036;28;20034;-78
2023/01/29 09:55:11;;;;;;;;;;;;;;;;;;5054708;28;19919;-78
2023/01/29 09:57:37;;;;;;;;;;;;;;;;;;5068120;28;19904;-77
2023/01/29 10:00:03;;;;;;;;;;;;;;;;;;5054556;28;19952;-78
2023/01/29 10:02:35;;;;;;;;;;;;;;;;;;5058839;28;19974;-77
2023/01/29 10:05:01;;;;;;;;;;;;;;;;;;5074330;28;19908;-77
2023/01/29 10:07:27;;;;;;;;;;;;;;;;;;5068206;28;19912;-77
2023/01/29 10:09:53;;;;;;;;;;;;;;;;;;5054390;28;19904;-78
2023/01/29 10:12:19;;;;;;;;;;;;;;;;;;5073304;28;20011;-78
2023/01/29 10:14:45;;;;;;;;;;;;;;;;;;5074300;28;19919;-78
2023/01/29 10:17:11;;;;;;;;;;;;;;;;;;5074614;28;19912;-78
2023/01/29 10:19:36;;;;;;;;;;;;;;;;;;5074521;28;19904;-78
2023/01/29 10:22:02;;;;;;;;;;;;;;;;;;5074547;28;19912;-78
2023/01/29 10:24:28;;;;;;;;;;;;;;;;;;5074355;28;19908;-78
2023/01/29 10:26:54;;;;;;;;;;;;;;;;;;5074402;28;19955;-78
2023/01/29 10:29:20;;;;;;;;;;;;;;;;;;5074376;28;19905;-78
2023/01/29 10:31:46;;;;;;;;;;;;;;;;;;5074645;28;19999;-78
2023/01/29 10:34:12;;;;;;;;;;;;;;;;;;5074274;28;19999;-77
2023/01/29 10:36:38;;;;;;;;;;;;;;;;;;5074598;28;19958;-78
2023/01/29 10:39:04;;;;;;;;;;;;;;;;;;5074174;28;19923;-78
2023/01/29 10:41:30;;;;;;;;;;;;;;;;;;5073956;28;20262;-77
2023/01/29 10:44:02;;;;;;;;;;;;;;;;;;5074104;28;19995;-77
2023/01/29 10:46:34;;;;;;;;;;;;;;;;;;5074220;28;19904;-78
2023/01/29 10:49:00;;;;;;;;;;;;;;;;;;5074387;28;19991;-77
2023/01/29 10:51:25;;;;;;;;;;;;;;;;;;5074359;28;19943;-78
2023/01/29 10:53:51;;;;;;;;;;;;;;;;;;5074158;28;19916;-78
2023/01/29 10:56:17;;;;;;;;;;;;;;;;;;5074264;28;19904;-77
2023/01/29 10:58:43;;;;;;;;;;;;;;;;;;5073759;28;20054;-78
2023/01/29 11:01:09;;;;;;;;;;;;;;;;;;5074060;28;20437;-78
2023/01/29 11:03:35;;;;;;;;;;;;;;;;;;5074181;28;19908;-78
2023/01/29 11:06:01;;;;;;;;;;;;;;;;;;5060335;28;20427;-78
2023/01/29 11:08:27;;;;;;;;;;;;;;;;;;5074197;28;19930;-78
2023/01/29 11:10:53;;;;;;;;;;;;;;;;;;5074693;28;20660;-78
2023/01/29 11:13:19;;;;;;;;;;;;;;;;;;5074766;28;19908;-78
2023/01/29 11:15:45;;;;;;;;;;;;;;;;;;5074660;28;19935;-78
2023/01/29 11:18:12;;;;;;;;;;;;;;;;;;5068806;28;19912;-78
2023/01/29 11:20:38;;;;;;;;;;;;;;;;;;5056321;28;20341;-78
2023/01/29 11:23:04;;;;;;;;;;;;;;;;;;5076197;28;19995;-78
2023/01/29 11:25:31;;;;;;;;;;;;;;;;;;5075995;28;19912;-78
2023/01/29 11:28:01;;;;;;;;;;;;;;;;;;5077013;28;19912;-78
2023/01/29 11:30:27;;;;;;;;;;;;;;;;;;5078476;28;19904;-78
2023/01/29 11:32:53;;;;;;;;;;;;;;;;;;5079071;28;19915;-78
2023/01/29 11:35:18;;;;;;;;;;;;;;;;;;5077996;28;19995;-78
2023/01/29 11:37:44;;;;;;;;;;;;;;;;;;5077781;28;19916;-78
2023/01/29 11:40:10;;;;;;;;;;;;;;;;;;5079109;28;19905;-79
2023/01/29 11:42:36;;;;;;;;;;;;;;;;;;5080164;28;19980;-78
2023/01/29 11:45:02;;;;;;;;;;;;;;;;;;5079493;28;19904;-78
2023/01/29 11:47:28;;;;;;;;;;;;;;;;;;5079456;28;19950;-78
2023/01/29 11:49:54;;;;;;;;;;;;;;;;;;5075820;28;19904;-79
2023/01/29 11:52:20;;;;;;;;;;;;;;;;;;5073978;28;19995;-78
2023/01/29 11:54:46;;;;;;;;;;;;;;;;;;5063879;28;20281;-78
2023/01/29 11:57:12;;;;;;;;;;;;;;;;;;5078023;28;19912;-79
2023/01/29 11:59:37;;;;;;;;;;;;;;;;;;5077252;28;19905;-79
2023/01/29 12:02:03;;;;;;;;;;;;;;;;;;5078427;28;19991;-79
2023/01/29 12:04:29;;;;;;;;;;;;;;;;;;5076244;28;19985;-79
2023/01/29 12:06:55;;;;;;;;;;;;;;;;;;5069072;28;19905;-79
2023/01/29 12:09:21;;;;;;;;;;;;;;;;;;5078796;28;19966;-79
2023/01/29 12:12:04;;;;;;;;;;;;;;;;;;5069502;28;19932;-80
2023/01/29 12:14:32;;;;;;;;;;;;;;;;;;5070812;28;19935;-80
2023/01/29 12:16:58;;;;;;;;;;;;;;;;;;5079238;28;19926;-80
2023/01/29 12:19:24;;;;;;;;;;;;;;;;;;5082387;28;19904;-80
2023/01/29 12:21:50;;;;;;;;;;;;;;;;;;5070475;28;19946;-80
2023/01/29 12:24:15;;;;;;;;;;;;;;;;;;5082258;28;19911;-80
2023/01/29 12:26:41;;;;;;;;;;;;;;;;;;5081037;28;19915;-80
2023/01/29 12:29:07;;;;;;;;;;;;;;;;;;5071974;28;19987;-78
2023/01/29 12:31:33;;;;;;;;;;;;;;;;;;5064690;28;19908;-80
2023/01/29 12:33:59;;;;;;;;;;;;;;;;;;5067881;28;19916;-80
2023/01/29 12:36:25;;;;;;;;;;;;;;;;;;5072030;28;19905;-79
2023/01/29 12:38:51;;;;;;;;;;;;;;;;;;5071069;28;19922;-80
2023/01/29 12:41:17;;;;;;;;;;;;;;;;;;5077870;28;19908;-79
2023/01/29 12:43:42;;;;;;;;;;;;;;;;;;5077638;28;19911;-79
2023/01/29 12:46:08;;;;;;;;;;;;;;;;;;5077844;28;19908;-79
2023/01/29 12:48:34;;;;;;;;;;;;;;;;;;5078472;28;19904;-79
2023/01/29 12:51:00;;;;;;;;;;;;;;;;;;5078139;28;19927;-78
2023/01/29 12:53:26;;;;;;;;;;;;;;;;;;5068851;28;19905;-80
2023/01/29 12:55:54;;;;;;;;;;;;;;;;;;5073325;28;20333;-79
2023/01/29 12:58:20;;;;;;;;;;;;;;;;;;5075497;28;19905;-79
2023/01/29 13:00:46;;;;;;;;;;;;;;;;;;5075430;28;19916;-80
2023/01/29 13:03:11;;;;;;;;;;;;;;;;;;5068940;28;20379;-80
2023/01/29 13:05:37;;;;;;;;;;;;;;;;;;5065911;28;19905;-80
2023/01/29 13:08:03;;;;;;;;;;;;;;;;;;5064426;28;19904;-79
2023/01/29 13:10:29;;;;;;;;;;;;;;;;;;5077415;28;19912;-79
2023/01/29 13:12:55;;;;;;;;;;;;;;;;;;5077462;28;19904;-80
2023/01/29 13:15:21;;;;;;;;;;;;;;;;;;5069419;28;19916;-79
2023/01/29 13:17:47;;;;;;;;;;;;;;;;;;5077417;28;20285;-80
2023/01/29 13:20:13;;;;;;;;;;;;;;;;;;5077143;28;19904;-79
2023/01/29 13:22:39;;;;;;;;;;;;;;;;;;5077687;28;19911;-79
2023/01/29 13:25:05;;;;;;;;;;;;;;;;;;5076250;28;19948;-80
2023/01/29 13:27:31;;;;;;;;;;;;;;;;;;5072292;28;19956;-80
2023/01/29 13:29:56;;;;;;;;;;;;;;;;;;5063137;28;19905;-80
2023/01/29 13:32:23;;;;;;;;;;;;;;;;;;5076572;28;19973;-79
2023/01/29 13:34:49;;;;;;;;;;;;;;;;;;5077870;28;20266;-79
2023/01/29 13:37:21;;;;;;;;;;;;;;;;;;5077231;28;20353;-79
2023/01/29 13:39:55;;;;;;;;;;;;;;;;;;5037904;28;20378;-79
2023/01/29 13:42:21;;;;;;;;;;;;;;;;;;5034666;28;20325;-80
2023/01/29 13:44:47;;;;;;;;;;;;;;;;;;5034708;28;19908;-79
2023/01/29 13:47:13;;;;;;;;;;;;;;;;;;5026806;28;19996;-79
2023/01/29 13:49:38;;;;;;;;;;;;;;;;;;5018840;28;19905;-79
2023/01/29 13:52:04;;;;;;;;;;;;;;;;;;5036911;28;19932;-79
2023/01/29 13:54:30;;;;;;;;;;;;;;;;;;5024518;28;19957;-79
2023/01/29 13:56:58;;;;;;;;;;;;;;;;;;5027405;28;19909;-79
2023/01/29 13:59:25;;;;;;;;;;;;;;;;;;5032134;28;19983;-79
2023/01/29 14:01:51;;;;;;;;;;;;;;;;;;5021201;28;19905;-79
2023/01/29 14:04:18;;;;;;;;;;;;;;;;;;5031881;28;19905;-79
2023/01/29 14:06:44;;;;;;;;;;;;;;;;;;5023496;28;19909;-79
2023/01/29 14:09:09;;;;;;;;;;;;;;;;;;5032135;28;19905;-80
2023/01/29 14:11:38;;;;;;;;;;;;;;;;;;5022072;28;19906;-80
2023/01/29 14:14:04;;;;;;;;;;;;;;;;;;5035183;28;19916;-79
2023/01/29 14:16:38;;;;;;;;;;;;;;;;;;5036842;28;19936;-79
2023/01/29 14:19:04;;;;;;;;;;;;;;;;;;5037035;28;19905;-79
2023/01/29 14:21:30;;;;;;;;;;;;;;;;;;5021280;28;19959;-79
2023/01/29 14:23:56;;;;;;;;;;;;;;;;;;5028298;28;20374;-79
2023/01/29 14:26:22;;;;;;;;;;;;;;;;;;5027120;28;20397;-79
2023/01/29 14:28:48;;;;;;;;;;;;;;;;;;5037986;28;19908;-79
2023/01/29 14:31:14;;;;;;;;;;;;;;;;;;5037250;28;19940;-79
2023/01/29 14:33:40;;;;;;;;;;;;;;;;;;5037474;28;19912;-80
2023/01/29 14:36:06;;;;;;;;;;;;;;;;;;5041936;28;20346;-80
2023/01/29 14:38:32;;;;;;;;;;;;;;;;;;5063860;28;19927;-80
2023/01/29 14:40:58;;;;;;;;;;;;;;;;;;5084229;28;20002;-80
2023/01/29 14:43:24;;;;;;;;;;;;;;;;;;5080945;28;19904;-80
2023/01/29 14:45:56;;;;;;;;;;;;;;;;;;5082020;28;19904;-80
2023/01/29 14:48:22;;;;;;;;;;;;;;;;;;5082579;28;19912;-80
2023/01/29 14:50:48;;;;;;;;;;;;;;;;;;5075883;28;19912;-80
2023/01/29 14:53:14;;;;;;;;;;;;;;;;;;5079865;28;19908;-80
2023/01/29 14:55:40;;;;;;;;;;;;;;;;;;5076617;28;19908;-80
2023/01/29 14:58:06;;;;;;;;;;;;;;;;;;5077453;28;19915;-80
2023/01/29 15:00:31;;;;;;;;;;;;;;;;;;5084082;28;20074;-80
2023/01/29 15:02:57;;;;;;;;;;;;;;;;;;5078557;28;19904;-80
2023/01/29 15:05:23;;;;;;;;;;;;;;;;;;5084703;28;19904;-80
2023/01/29 15:07:49;;;;;;;;;;;;;;;;;;5076072;28;20305;-81
2023/01/29 15:10:15;;;;;;;;;;;;;;;;;;5079806;28;19908;-80
2023/01/29 15:12:41;;;;;;;;;;;;;;;;;;5077699;28;19954;-80
2023/01/29 15:15:07;;;;;;;;;;;;;;;;;;5085193;28;19915;-80
2023/01/29 15:17:33;;;;;;;;;;;;;;;;;;5083576;28;19908;-80
2023/01/29 15:19:59;;;;;;;;;;;;;;;;;;5078224;28;20338;-80
2023/01/29 15:22:25;;;;;;;;;;;;;;;;;;5080576;28;19904;-80
2023/01/29 15:24:50;;;;;;;;;;;;;;;;;;5073750;28;19914;-80
2023/01/29 15:27:16;;;;;;;;;;;;;;;;;;5079419;28;20004;-80
2023/01/29 15:29:44;;;;;;;;;;;;;;;;;;5073479;28;19908;-80
2023/01/29 15:32:10;;;;;;;;;;;;;;;;;;5080179;28;19908;-80
2023/01/29 15:34:36;;;;;;;;;;;;;;;;;;5071419;28;19909;-80
2023/01/29 15:37:02;;;;;;;;;;;;;;;;;;5076870;28;19926;-80
2023/01/29 15:39:30;;;;;;;;;;;;;;;;;;5078228;28;20235;-80
2023/01/29 15:41:56;;;;;;;;;;;;;;;;;;5082244;28;19916;-80
2023/01/29 15:44:22;;;;;;;;;;;;;;;;;;5073964;28;19951;-80
2023/01/29 15:46:48;;;;;;;;;;;;;;;;;;5082514;28;19910;-80
2023/01/29 15:49:14;;;;;;;;;;;;;;;;;;5070819;28;19966;-80
2023/01/29 15:51:39;;;;;;;;;;;;;;;;;;5072366;28;19909;-80
2023/01/29 15:54:05;;;;;;;;;;;;;;;;;;5072194;28;19912;-80
2023/01/29 15:56:31;;;;;;;;;;;;;;;;;;5078754;28;19915;-80
2023/01/29 15:58:57;;;;;;;;;;;;;;;;;;5077672;28;19905;-80
2023/01/29 16:01:23;;;;;;;;;;;;;;;;;;5063484;28;20395;-80
2023/01/29 16:03:49;;;;;;;;;;;;;;;;;;5076902;28;19908;-80
2023/01/29 16:06:15;;;;;;;;;;;;;;;;;;5078046;28;19905;-80
2023/01/29 16:08:41;;;;;;;;;;;;;;;;;;5078716;28;19994;-80
2023/01/29 16:11:07;;;;;;;;;;;;;;;;;;5085451;28;19934;-80
2023/01/29 16:13:35;;;;;;;;;;;;;;;;;;5085566;28;20006;-80
2023/01/29 16:16:09;;;;;;;;;;;;;;;;;;5083865;28;19969;-80
2023/01/29 16:18:35;;;;;;;;;;;;;;;;;;5086284;28;19904;-80
2023/01/29 16:21:01;;;;;;;;;;;;;;;;;;5086101;28;19912;-80
2023/01/29 16:23:27;;;;;;;;;;;;;;;;;;5086193;28;19905;-80
2023/01/29 16:25:53;;;;;;;;;;;;;;;;;;5086522;28;20009;-80
2023/01/29 16:28:19;;;;;;;;;;;;;;;;;;5083866;28;19967;-80
2023/01/29 16:30:45;;;;;;;;;;;;;;;;;;5071329;28;20565;-80
2023/01/29 16:33:11;;;;;;;;;;;;;;;;;;5052624;28;19911;-80
2023/01/29 16:35:37;;;;;;;;;;;;;;;;;;5066128;28;19908;-80
2023/01/29 16:38:03;;;;;;;;;;;;;;;;;;5076627;28;20400;-80
2023/01/29 16:40:31;;;;;;;;;;;;;;;;;;5051196;28;19904;-80
2023/01/29 16:42:57;;;;;;;;;;;;;;;;;;5071719;28;19904;-80
2023/01/29 16:45:23;;;;;;;;;;;;;;;;;;5058318;28;19950;-80
2023/01/29 16:47:49;;;;;;;;;;;;;;;;;;5084459;28;20364;-80
2023/01/29 16:50:15;;;;;;;;;;;;;;;;;;5066223;28;19908;-80
2023/01/29 16:52:41;;;;;;;;;;;;;;;;;;5084409;28;19904;-80
2023/01/29 16:55:07;;;;;;;;;;;;;;;;;;5071693;28;20049;-80
2023/01/29 16:57:33;;;;;;;;;;;;;;;;;;5070591;28;19908;-80
2023/01/29 16:59:59;;;;;;;;;;;;;;;;;;5072585;28;19970;-80
2023/01/29 17:02:25;;;;;;;;;;;;;;;;;;5084689;28;19908;-80
2023/01/29 17:04:51;;;;;;;;;;;;;;;;;;5084845;28;19912;-80
2023/01/29 17:07:20;;;;;;;;;;;;;;;;;;5073713;28;19912;-81
2023/01/29 17:09:46;;;;;;;;;;;;;;;;;;5063273;28;19926;-80
2023/01/29 17:12:11;;;;;;;;;;;;;;;;;;5076919;28;19972;-80
2023/01/29 17:14:40;;;;;;;;;;;;;;;;;;5076959;28;19920;-80